San Angelo, Texas
Current Conditions -  °F | °C
As of 5:51 PM on Wednesday 22 Oct 2014 (Local Time) from KSJT Reporting Station
Overcast Overcast  
Wind Chill: 74°   Ceiling: 6500
Heat Index: 74°   Visibility: 10mi
Dew Point: 53°   Wind: 6mph
Humidity: 48%   Direction: 140°SE
Pressure: 30.08"   Gusts: NA
Location:  31.46°N, 100.44°W
Report Text: KSJT 222251Z 14005KT 10SM BKN065 OVC095 23/12 A3008 RMK AO2 SLP168 T02330117
Loading
Personal Weather Stations






























Interactive Weather Map
Tropical Storm Tracking
New forecast layout! Learn more

10-Day Weather Forecast

Advertisements
Track Severe Weather on mobile